Luminous Kobe-2 — JJ3868 — position and weather

sailwx.info

Track history (hours):
 
Tides and Currents Weather Stations Pressure Air Temp Water Temp Dewpoint Dewpoint Depression Visibility Wind Speed Wind Dir Waves Ship Positions

Luminous Kobe-2

Last reported at 2018-Apr-25 09:00 UTC. Time now 2018-Apr-25 08:59 UTC.
Position N 34°40' E 135°12'.

Length 105 m; draft 4.4 m.

Type: Passenger vessel. MMSI: 431000469.

Date/timePositionNaut miles runAvg speedWind from/ knotsBaromVisibWave heightAir tempDewpointWater temp
2018-Apr-25 09:00N 34°40' E 135°12'4 8.8
2018-Apr-25 08:30N 34°37' E 135°07'5 9.8
2018-Apr-25 08:00N 34°41' E 135°11'0 0.0
2018-Apr-25 07:30N 34°41' E 135°11'0 0.0
2018-Apr-25 07:00N 34°41' E 135°11'0 0.0
2018-Apr-25 06:30N 34°41' E 135°11'0 0.0
2018-Apr-25 06:00N 34°41' E 135°11'0 0.0
2018-Apr-25 05:30N 34°41' E 135°11'0 0.0
2018-Apr-25 05:00N 34°41' E 135°11'2 4.9
2018-Apr-25 04:30N 34°38' E 135°11'4 7.1
2018-Apr-25 04:01N 34°37' E 135°07'5 9.4
2018-Apr-25 03:30N 34°38' E 135°13'3 6.9
2018-Apr-25 03:00N 34°41' E 135°11'0 0.0
2018-Apr-25 02:30N 34°41' E 135°11'0 0.0
2018-Apr-25 02:00N 34°41' E 135°11'0 0.0
2018-Apr-25 01:30N 34°41' E 135°11'0 0.0
2018-Apr-25 01:00N 34°41' E 135°11'0 0.0
2018-Apr-25 00:30N 34°41' E 135°11'0 0.0
2018-Apr-25 00:00N 34°41' E 135°11'0 0.0
2018-Apr-24 23:30N 34°41' E 135°11'0 0.0
2018-Apr-24 23:00N 34°41' E 135°11'0 0.0
2018-Apr-24 22:30N 34°41' E 135°11'0 0.0
2018-Apr-24 22:00N 34°41' E 135°11'0 0.0
2018-Apr-24 21:30N 34°41' E 135°11'0 0.0
2018-Apr-24 21:00N 34°41' E 135°11'0 0.0
2018-Apr-24 20:30N 34°41' E 135°11'0 0.0
2018-Apr-24 20:00N 34°41' E 135°11'0 0.0
2018-Apr-24 19:30N 34°41' E 135°11'0 0.0
2018-Apr-24 19:00N 34°41' E 135°11'0 0.0
2018-Apr-24 18:30N 34°41' E 135°11'0 0.0
2018-Apr-24 18:00N 34°41' E 135°11'0 0.0
2018-Apr-24 17:30N 34°41' E 135°11'0 0.0
2018-Apr-24 17:00N 34°41' E 135°11'0 0.0
2018-Apr-24 16:30N 34°41' E 135°11'0 0.0
2018-Apr-24 16:00N 34°41' E 135°11'0 0.0
2018-Apr-24 15:30N 34°41' E 135°11'0 0.0
2018-Apr-24 15:00N 34°41' E 135°11'0 0.0
2018-Apr-24 14:30N 34°41' E 135°11'0 0.0
2018-Apr-24 14:00N 34°41' E 135°11'0 0.0
2018-Apr-24 13:30N 34°41' E 135°11'0 0.0
2018-Apr-24 13:00N 34°41' E 135°11'0 0.0
2018-Apr-24 12:30N 34°41' E 135°11'1 2.5
2018-Apr-24 12:00N 34°40' E 135°11'713.3
2018-Apr-24 11:30N 34°35' E 135°05'611.1
2018-Apr-24 11:00N 34°38' E 134°59'612.7
2018-Apr-24 10:31N 34°37' E 135°07'510.4
2018-Apr-24 10:00N 34°41' E 135°11'0 0.0
2018-Apr-24 09:30N 34°41' E 135°11'1 1.9
2018-Apr-24 09:00N 34°40' E 135°12'4 9.0
2018-Apr-24 08:30N 34°37' E 135°07'5 9.8
2018-Apr-24 08:00N 34°41' E 135°11'0 0.0
2018-Apr-24 07:30N 34°41' E 135°11'0 0.0
2018-Apr-24 07:00N 34°41' E 135°11'0 0.0
2018-Apr-24 06:30N 34°41' E 135°11'0 0.0
2018-Apr-24 06:00N 34°41' E 135°11'0 0.0
2018-Apr-24 05:30N 34°41' E 135°11'0 0.0
2018-Apr-24 05:00N 34°41' E 135°11'3 5.6
2018-Apr-24 04:30N 34°38' E 135°10'2 4.6
2018-Apr-24 04:00N 34°37' E 135°08'3 6.9
2018-Apr-24 03:30N 34°37' E 135°12'3 6.9
2018-Apr-24 03:00N 34°41' E 135°11'0 0.0
2018-Apr-24 02:30N 34°41' E 135°11'0 0.0
2018-Apr-24 02:00N 34°41' E 135°11'0 0.0
2018-Apr-24 01:30N 34°41' E 135°11'0 0.0
2018-Apr-24 01:00N 34°41' E 135°11'0 0.0
2018-Apr-24 00:30N 34°41' E 135°11'0 0.0
2018-Apr-24 00:00N 34°41' E 135°11'0 0.0
2018-Apr-23 23:30N 34°41' E 135°11'0 0.0
2018-Apr-23 23:00N 34°41' E 135°11'0 0.0
2018-Apr-23 22:30N 34°41' E 135°11'0 0.0
2018-Apr-23 22:00N 34°41' E 135°11'0 0.0
2018-Apr-23 21:30N 34°41' E 135°11'0 0.0
2018-Apr-23 21:00N 34°41' E 135°11'0 0.0
2018-Apr-23 20:30N 34°41' E 135°11'0 0.0
2018-Apr-23 20:00N 34°41' E 135°11'0 0.0
2018-Apr-23 19:30N 34°41' E 135°11'0 0.0
2018-Apr-23 19:00N 34°41' E 135°11'0 0.0
2018-Apr-23 18:30N 34°41' E 135°11'0 0.0
2018-Apr-23 18:00N 34°41' E 135°11'0 0.0
2018-Apr-23 17:30N 34°41' E 135°11'0 0.0
2018-Apr-23 17:00N 34°41' E 135°11'0 0.0
2018-Apr-23 16:30N 34°41' E 135°11'0 0.0
2018-Apr-23 16:00N 34°41' E 135°11'0 0.0
2018-Apr-23 15:30N 34°41' E 135°11'0 0.0
2018-Apr-23 15:00N 34°41' E 135°11'0 0.0
2018-Apr-23 14:30N 34°41' E 135°11'0 0.0
2018-Apr-23 14:00N 34°41' E 135°11'0 0.0
2018-Apr-23 13:30N 34°41' E 135°11'0 0.0
2018-Apr-23 13:00N 34°41' E 135°11'0 0.0
2018-Apr-23 12:30N 34°41' E 135°11'2 3.8
2018-Apr-23 12:00N 34°39' E 135°11'612.5
2018-Apr-23 11:31N 34°35' E 135°05'510.0
2018-Apr-23 11:00N 34°38' E 135°00'611.9
2018-Apr-23 10:30N 34°37' E 135°07'510.1
2018-Apr-23 10:00N 34°41' E 135°11'0 0.0
2018-Apr-23 09:28N 34°41' E 135°11'1 2.2
2018-Apr-23 09:00N 34°40' E 135°12'4 8.7
2018-Apr-23 08:30N 34°37' E 135°07'5 9.8
2018-Apr-23 08:00N 34°41' E 135°11'0 0.0
2018-Apr-23 07:28N 34°41' E 135°11'0 0.0
2018-Apr-23 06:58N 34°41' E 135°11'0 0.0
2018-Apr-23 06:28N 34°41' E 135°11'0 0.0
2018-Apr-23 05:58N 34°41' E 135°11'0 0.0
2018-Apr-23 05:28N 34°41' E 135°11'0 0.0
2018-Apr-23 05:01N 34°41' E 135°11'3 5.9
2018-Apr-23 04:30N 34°38' E 135°10'4 7.4
2018-Apr-23 04:00N 34°37' E 135°06'510.7
2018-Apr-23 03:30N 34°37' E 135°12'3 7.0
2018-Apr-23 03:00N 34°41' E 135°11'0 0.0
2018-Apr-23 02:28N 34°41' E 135°11'0 0.0
2018-Apr-23 01:58N 34°41' E 135°11'0 0.0
2018-Apr-23 01:28N 34°41' E 135°11'0 0.0
2018-Apr-23 00:58N 34°41' E 135°11'0 0.0
2018-Apr-23 00:28N 34°41' E 135°11'0 0.0
2018-Apr-22 23:58N 34°41' E 135°11'0 0.0
2018-Apr-22 23:28N 34°41' E 135°11'0 0.0
2018-Apr-22 22:58N 34°41' E 135°11'0 0.0
2018-Apr-22 22:28N 34°41' E 135°11'0 0.0
2018-Apr-22 21:58N 34°41' E 135°11'0 0.0
2018-Apr-22 21:28N 34°41' E 135°11'0 0.0
2018-Apr-22 20:58N 34°41' E 135°11'0 0.0
2018-Apr-22 20:28N 34°41' E 135°11'0 0.0
2018-Apr-22 19:58N 34°41' E 135°11'0 0.0
2018-Apr-22 19:28N 34°41' E 135°11'0 0.0
2018-Apr-22 18:58N 34°41' E 135°11'0 0.0
2018-Apr-22 18:28N 34°41' E 135°11'0 0.0
2018-Apr-22 17:58N 34°41' E 135°11'0 0.0
2018-Apr-22 17:28N 34°41' E 135°11'0 0.0
2018-Apr-22 16:58N 34°41' E 135°11'0 0.0
2018-Apr-22 16:28N 34°41' E 135°11'0 0.0
2018-Apr-22 15:58N 34°41' E 135°11'0 0.0
2018-Apr-22 15:28N 34°41' E 135°11'0 0.0
2018-Apr-22 14:58N 34°41' E 135°11'0 0.0
2018-Apr-22 14:28N 34°41' E 135°11'0 0.0
2018-Apr-22 13:58N 34°41' E 135°11'0 0.0
2018-Apr-22 13:28N 34°41' E 135°11'0 0.0
2018-Apr-22 12:58N 34°41' E 135°11'0 0.0
2018-Apr-22 12:28N 34°41' E 135°11'1 2.5
2018-Apr-22 12:00N 34°40' E 135°12'612.2
2018-Apr-22 11:30N 34°35' E 135°06'611.6
2018-Apr-22 11:00N 34°38' E 134°60'611.9
2018-Apr-22 10:30N 34°37' E 135°07'510.3
2018-Apr-22 10:01N 34°41' E 135°11'0 0.0
2018-Apr-22 09:29N 34°41' E 135°11'0 0.0
2018-Apr-22 08:59N 34°41' E 135°11'2 4.5
2018-Apr-22 08:30N 34°39' E 135°11'3 6.6
2018-Apr-22 08:00N 34°37' E 135°08'4 7.3
2018-Apr-22 07:30N 34°37' E 135°12'3 6.8
2018-Apr-22 07:01N 34°41' E 135°11'0 0.0
2018-Apr-22 06:28N 34°41' E 135°11'0 0.0
2018-Apr-22 05:58N 34°41' E 135°11'0 0.0
2018-Apr-22 05:28N 34°41' E 135°11'0 0.0
2018-Apr-22 05:00N 34°41' E 135°11'2 4.8
2018-Apr-22 04:30N 34°38' E 135°11'3 6.3
2018-Apr-22 04:00N 34°37' E 135°08'4 8.5
2018-Apr-22 03:30N 34°38' E 135°13'3 6.9
2018-Apr-22 03:00N 34°41' E 135°11'0 0.0
2018-Apr-22 02:29N 34°41' E 135°11'0 0.0
2018-Apr-22 01:59N 34°41' E 135°11'0 0.0
2018-Apr-22 01:29N 34°41' E 135°11'0 0.0
2018-Apr-22 00:59N 34°41' E 135°11'0 0.0
2018-Apr-22 00:29N 34°41' E 135°11'0 0.0
2018-Apr-21 23:59N 34°41' E 135°11'0 0.0
2018-Apr-21 23:29N 34°41' E 135°11'0 0.0
2018-Apr-21 22:59N 34°41' E 135°11'0 0.0
2018-Apr-21 22:29N 34°41' E 135°11'0 0.0
2018-Apr-21 21:59N 34°41' E 135°11'0 0.0
2018-Apr-21 21:29N 34°41' E 135°11'0 0.0
2018-Apr-21 20:59N 34°41' E 135°11'0 0.0
2018-Apr-21 20:29N 34°41' E 135°11'0 0.0
2018-Apr-21 19:59N 34°41' E 135°11'0 0.0
2018-Apr-21 19:29N 34°41' E 135°11'0 0.0
2018-Apr-21 18:59N 34°41' E 135°11'0 0.0
2018-Apr-21 18:29N 34°41' E 135°11'0 0.0
2018-Apr-21 17:59N 34°41' E 135°11'0 0.0
2018-Apr-21 17:29N 34°41' E 135°11'0 0.0
2018-Apr-21 16:59N 34°41' E 135°11'0 0.0
2018-Apr-21 16:29N 34°41' E 135°11'0 0.0
2018-Apr-21 15:59N 34°41' E 135°11'0 0.0
2018-Apr-21 15:29N 34°41' E 135°11'0 0.0
2018-Apr-21 14:59N 34°41' E 135°11'0 0.0
2018-Apr-21 14:29N 34°41' E 135°11'0 0.0
2018-Apr-21 13:59N 34°41' E 135°11'0 0.0
2018-Apr-21 13:29N 34°41' E 135°11'0 0.0
2018-Apr-21 12:59N 34°41' E 135°11'0 0.0
2018-Apr-21 12:29N 34°41' E 135°11'1 3.1
2018-Apr-21 12:00N 34°39' E 135°11'612.6
2018-Apr-21 11:30N 34°35' E 135°06'611.0
2018-Apr-21 11:00N 34°37' E 134°60'612.9
2018-Apr-21 10:30N 34°37' E 135°07'5 9.8
2018-Apr-21 10:00N 34°41' E 135°11'0 0.0
2018-Apr-21 09:29N 34°41' E 135°11'0 0.0
2018-Apr-21 08:59N 34°41' E 135°11'2 4.3
2018-Apr-21 08:30N 34°39' E 135°11'4 8.3
2018-Apr-21 08:00N 34°37' E 135°07'510.7
2018-Apr-21 07:30N 34°37' E 135°13'4 7.6
2018-Apr-21 07:00N 34°41' E 135°11'0 0.0
2018-Apr-21 06:29N 34°41' E 135°11'0 0.0
2018-Apr-21 05:59N 34°41' E 135°11'0 0.0
2018-Apr-21 05:29N 34°41' E 135°11'0 0.0
2018-Apr-21 05:01N 34°41' E 135°11'3 5.5
2018-Apr-21 04:30N 34°38' E 135°11'4 7.3
2018-Apr-21 04:00N 34°36' E 135°07'510.1
2018-Apr-21 03:30N 34°38' E 135°13'3 6.9
2018-Apr-21 03:01N 34°41' E 135°11'0 0.0
2018-Apr-21 02:28N 34°41' E 135°11'0 0.0
2018-Apr-21 01:58N 34°41' E 135°11'0 0.0
2018-Apr-21 01:28N 34°41' E 135°11'0 0.0
2018-Apr-21 00:58N 34°41' E 135°11'0 0.0
2018-Apr-21 00:28N 34°41' E 135°11'0 0.0
2018-Apr-20 23:58N 34°41' E 135°11'0 0.0
2018-Apr-20 23:28N 34°41' E 135°11'0 0.0
2018-Apr-20 22:58N 34°41' E 135°11'0 0.0
2018-Apr-20 22:28N 34°41' E 135°11'0 0.0
2018-Apr-20 21:58N 34°41' E 135°11'0 0.0
2018-Apr-20 21:28N 34°41' E 135°11'0 0.0
2018-Apr-20 20:58N 34°41' E 135°11'0 0.0
2018-Apr-20 20:28N 34°41' E 135°11'0 0.0
2018-Apr-20 19:58N 34°41' E 135°11'0 0.0
2018-Apr-20 19:28N 34°41' E 135°11'0 0.0
2018-Apr-20 18:58N 34°41' E 135°11'0 0.0
2018-Apr-20 18:28N 34°41' E 135°11'0 0.0
2018-Apr-20 17:58N 34°41' E 135°11'0 0.0
2018-Apr-20 17:28N 34°41' E 135°11'0 0.0
2018-Apr-20 16:58N 34°41' E 135°11'0 0.0
2018-Apr-20 16:28N 34°41' E 135°11'0 0.0
2018-Apr-20 15:58N 34°41' E 135°11'0 0.0
2018-Apr-20 15:28N 34°41' E 135°11'0 0.0
2018-Apr-20 14:58N 34°41' E 135°11'0 0.0
2018-Apr-20 14:28N 34°41' E 135°11'0 0.0
2018-Apr-20 13:58N 34°41' E 135°11'0 0.0
2018-Apr-20 13:28N 34°41' E 135°11'0 0.0
2018-Apr-20 12:58N 34°41' E 135°11'0 0.0
2018-Apr-20 12:28N 34°41' E 135°11'1 3.0
2018-Apr-20 12:00N 34°39' E 135°11'611.7
2018-Apr-20 11:30N 34°35' E 135°06'613.0
2018-Apr-20 11:01N 34°37' E 134°59'713.6
2018-Apr-20 10:30N 34°37' E 135°07'510.2
2018-Apr-20 10:00N 34°41' E 135°11'0 0.0
2018-Apr-20 09:30N 34°41' E 135°11'1 2.1
2018-Apr-20 09:01N 34°40' E 135°12'4 8.2
2018-Apr-20 08:30N 34°38' E 135°07'5 9.2
2018-Apr-20 08:00N 34°41' E 135°11'0 0.0
2018-Apr-20 07:28N 34°41' E 135°11'0 0.0
2018-Apr-20 06:58N 34°41' E 135°11'0 0.0
2018-Apr-20 06:28N 34°41' E 135°11'0 0.0
2018-Apr-20 05:58N 34°41' E 135°11'0 0.0
2018-Apr-20 05:28N 34°41' E 135°11'0 0.0
2018-Apr-20 05:00N 34°41' E 135°11'3 5.0
2018-Apr-20 04:30N 34°38' E 135°11'2 4.9
2018-Apr-20 04:00N 34°37' E 135°08'3 6.7
2018-Apr-20 03:30N 34°38' E 135°12'3 6.8
2018-Apr-20 03:01N 34°41' E 135°11'0 0.0
2018-Apr-20 02:28N 34°41' E 135°11'0 0.0
2018-Apr-20 01:58N 34°41' E 135°11'0 0.0
2018-Apr-20 01:28N 34°41' E 135°11'0 0.0
2018-Apr-20 00:58N 34°41' E 135°11'0 0.0
2018-Apr-20 00:28N 34°41' E 135°11'0 0.0
2018-Apr-19 23:58N 34°41' E 135°11'0 0.0
2018-Apr-19 23:28N 34°41' E 135°11'0 0.0
2018-Apr-19 22:58N 34°41' E 135°11'0 0.0
2018-Apr-19 22:28N 34°41' E 135°11'0 0.0
2018-Apr-19 21:58N 34°41' E 135°11'0 0.0
2018-Apr-19 21:28N 34°41' E 135°11'0 0.0
2018-Apr-19 20:58N 34°41' E 135°11'0 0.0
2018-Apr-19 20:28N 34°41' E 135°11'0 0.0
2018-Apr-19 19:58N 34°41' E 135°11'0 0.0
2018-Apr-19 19:28N 34°41' E 135°11'0 0.0
2018-Apr-19 18:58N 34°41' E 135°11'0 0.0
2018-Apr-19 18:28N 34°41' E 135°11'0 0.0
2018-Apr-19 17:58N 34°41' E 135°11'0 0.0
2018-Apr-19 17:28N 34°41' E 135°11'0 0.0
2018-Apr-19 16:58N 34°41' E 135°11'0 0.0
2018-Apr-19 16:28N 34°41' E 135°11'0 0.0
2018-Apr-19 15:58N 34°41' E 135°11'0 0.0
2018-Apr-19 15:28N 34°41' E 135°11'0 0.0
2018-Apr-19 14:58N 34°41' E 135°11'0 0.0
2018-Apr-19 14:28N 34°41' E 135°11'0 0.0
2018-Apr-19 13:58N 34°41' E 135°11'0 0.0
2018-Apr-19 13:28N 34°41' E 135°11'0 0.0
2018-Apr-19 12:58N 34°41' E 135°11'0 0.0
2018-Apr-19 12:28N 34°41' E 135°11'2 3.5
2018-Apr-19 12:00N 34°39' E 135°11'611.1
2018-Apr-19 11:30N 34°36' E 135°06'612.2
2018-Apr-19 11:00N 34°37' E 134°59'612.7
2018-Apr-19 10:31N 34°37' E 135°07'510.6
2018-Apr-19 10:00N 34°41' E 135°11'0 0.0
2018-Apr-19 09:30N 34°41' E 135°11'1 2.0
2018-Apr-19 09:00N 34°40' E 135°12'4 8.7
2018-Apr-19 08:30N 34°38' E 135°07'5 9.6
2018-Apr-19 08:00N 34°41' E 135°11'0 0.0
2018-Apr-19 07:29N 34°41' E 135°11'0 0.0
2018-Apr-19 06:59N 34°41' E 135°11'0 0.0
2018-Apr-19 06:29N 34°41' E 135°11'0 0.0
2018-Apr-19 05:59N 34°41' E 135°11'0 0.0
2018-Apr-19 05:29N 34°41' E 135°11'0 0.0
2018-Apr-19 05:01N 34°41' E 135°11'3 5.1
2018-Apr-19 04:30N 34°38' E 135°11'4 7.4
2018-Apr-19 04:00N 34°37' E 135°07'510.0
2018-Apr-19 03:30N 34°38' E 135°13'3 6.9
2018-Apr-19 03:00N 34°41' E 135°11'0 0.0
2018-Apr-19 02:30N 34°41' E 135°11'0 0.0
2018-Apr-19 02:00N 34°41' E 135°11'0 0.0
2018-Apr-19 01:30N 34°41' E 135°11'0 0.0
2018-Apr-19 01:00N 34°41' E 135°11'0 0.0
2018-Apr-19 00:30N 34°41' E 135°11'0 0.0
2018-Apr-19 00:00N 34°41' E 135°11'0 0.0
2018-Apr-18 23:30N 34°41' E 135°11'0 0.0
2018-Apr-18 23:00N 34°41' E 135°11'0 0.0
2018-Apr-18 22:30N 34°41' E 135°11'0 0.0
2018-Apr-18 22:00N 34°41' E 135°11'0 0.0
2018-Apr-18 21:30N 34°41' E 135°11'0 0.0
2018-Apr-18 21:00N 34°41' E 135°11'0 0.0
2018-Apr-18 20:30N 34°41' E 135°11'0 0.0
2018-Apr-18 20:00N 34°41' E 135°11'0 0.0
2018-Apr-18 19:30N 34°41' E 135°11'0 0.0
2018-Apr-18 19:00N 34°41' E 135°11'0 0.0
2018-Apr-18 18:30N 34°41' E 135°11'0 0.0
2018-Apr-18 18:00N 34°41' E 135°11'0 0.0
2018-Apr-18 17:30N 34°41' E 135°11'0 0.0
2018-Apr-18 17:00N 34°41' E 135°11'0 0.0
2018-Apr-18 16:30N 34°41' E 135°11'0 0.0
2018-Apr-18 16:00N 34°41' E 135°11'0 0.0
2018-Apr-18 15:30N 34°41' E 135°11'0 0.0
2018-Apr-18 15:00N 34°41' E 135°11'0 0.0
2018-Apr-18 14:30N 34°41' E 135°11'0 0.0
2018-Apr-18 14:00N 34°41' E 135°11'0 0.0
2018-Apr-18 13:30N 34°41' E 135°11'0 0.0
2018-Apr-18 13:00N 34°41' E 135°11'0 0.0
2018-Apr-18 12:30N 34°41' E 135°11'2 3.6
2018-Apr-18 12:00N 34°39' E 135°11'612.2
2018-Apr-18 11:31N 34°35' E 135°06'611.3
2018-Apr-18 11:00N 34°37' E 134°59'612.9
2018-Apr-18 10:31N 34°37' E 135°07'510.6
2018-Apr-18 10:00N 34°41' E 135°11'0 0.0
2018-Apr-18 09:26N 34°41' E 135°11'1 2.5
2018-Apr-18 09:01N 34°40' E 135°12'4 8.6
2018-Apr-18 08:30N 34°37' E 135°07'5 9.7
2018-Apr-18 08:01N 34°41' E 135°11'0 0.0
2018-Apr-18 07:30N 34°41' E 135°11'0 0.0
2018-Apr-18 07:00N 34°41' E 135°11'0 0.0
2018-Apr-18 06:31N 34°41' E 135°11'0 0.0
2018-Apr-18 06:01N 34°41' E 135°11'0 0.0
2018-Apr-18 05:30N 34°41' E 135°11'0 0.0
2018-Apr-18 05:00N 34°41' E 135°11'2 5.0
2018-Apr-18 04:30N 34°38' E 135°11'3 5.2
2018-Apr-18 04:01N 34°37' E 135°08'3 6.8
2018-Apr-18 03:30N 34°37' E 135°12'3 6.9
2018-Apr-18 03:00N 34°41' E 135°11'0 0.0
2018-Apr-18 02:28N 34°41' E 135°11'0 0.0
2018-Apr-18 01:58N 34°41' E 135°11'0 0.0
2018-Apr-18 01:28N 34°41' E 135°11'0 0.0
2018-Apr-18 00:58N 34°41' E 135°11'0 0.0
2018-Apr-18 00:28N 34°41' E 135°11'0 0.0
2018-Apr-17 23:58N 34°41' E 135°11'0 0.0
2018-Apr-17 23:28N 34°41' E 135°11'0 0.0
2018-Apr-17 22:58N 34°41' E 135°11'0 0.0
2018-Apr-17 22:28N 34°41' E 135°11'0 0.0
2018-Apr-17 21:58N 34°41' E 135°11'0 0.0
2018-Apr-17 21:28N 34°41' E 135°11'0 0.0
2018-Apr-17 20:58N 34°41' E 135°11'0 0.0
2018-Apr-17 20:28N 34°41' E 135°11'0 0.0
2018-Apr-17 19:58N 34°41' E 135°11'0 0.0
2018-Apr-17 19:28N 34°41' E 135°11'0 0.0
2018-Apr-17 18:58N 34°41' E 135°11'0 0.0
2018-Apr-17 18:28N 34°41' E 135°11'0 0.0
2018-Apr-17 17:58N 34°41' E 135°11'0 0.0
2018-Apr-17 17:28N 34°41' E 135°11'0 0.0
2018-Apr-17 16:58N 34°41' E 135°11'0 0.0
2018-Apr-17 16:28N 34°41' E 135°11'0 0.0
2018-Apr-17 15:58N 34°41' E 135°11'0 0.0
2018-Apr-17 15:28N 34°41' E 135°11'0 0.0
2018-Apr-17 14:58N 34°41' E 135°11'0 0.0
2018-Apr-17 14:28N 34°41' E 135°11'0 0.0
2018-Apr-17 13:58N 34°41' E 135°11'0 0.0
2018-Apr-17 13:25N 34°41' E 135°11'0 0.0
2018-Apr-17 12:58N 34°41' E 135°11'0 0.0
2018-Apr-17 12:28N 34°41' E 135°11'2 3.7
2018-Apr-17 12:00N 34°39' E 135°11'611.9
2018-Apr-17 11:30N 34°35' E 135°06'611.2
2018-Apr-17 11:00N 34°37' E 134°59'612.5
2018-Apr-17 10:30N 34°37' E 135°07'510.7
2018-Apr-17 10:00N 34°41' E 135°11'0 0.0
2018-Apr-17 09:30N 34°41' E 135°11'1 2.5
2018-Apr-17 09:00N 34°40' E 135°11'4 8.6
2018-Apr-17 08:30N 34°37' E 135°07'5 9.9
2018-Apr-17 08:00N 34°41' E 135°11'0 0.0
2018-Apr-17 07:30N 34°41' E 135°11'0 0.0
2018-Apr-17 07:00N 34°41' E 135°11'0 0.0
2018-Apr-17 06:30N 34°41' E 135°11'0 0.0
2018-Apr-17 06:00N 34°41' E 135°11'0 0.0
2018-Apr-17 05:30N 34°41' E 135°11'0 0.0
2018-Apr-17 05:00N 34°41' E 135°11'3 5.1
2018-Apr-17 04:30N 34°38' E 135°11'4 8.0
2018-Apr-17 04:00N 34°36' E 135°07'5 9.8
2018-Apr-17 03:30N 34°37' E 135°12'3 7.0
2018-Apr-17 03:00N 34°41' E 135°11'0 0.0
2018-Apr-17 02:30N 34°41' E 135°11'0 0.0
2018-Apr-17 02:00N 34°41' E 135°11'0 0.0
2018-Apr-17 01:30N 34°41' E 135°11'0 0.0
2018-Apr-17 01:00N 34°41' E 135°11'0 0.0
2018-Apr-17 00:30N 34°41' E 135°11'0 0.0
2018-Apr-17 00:00N 34°41' E 135°11'0 0.0
2018-Apr-16 23:30N 34°41' E 135°11'0 0.0
2018-Apr-16 23:00N 34°41' E 135°11'0 0.0
2018-Apr-16 22:30N 34°41' E 135°11'0 0.0
2018-Apr-16 22:00N 34°41' E 135°11'0 0.0
2018-Apr-16 21:30N 34°41' E 135°11'0 0.0
2018-Apr-16 21:00N 34°41' E 135°11'0 0.0
2018-Apr-16 20:30N 34°41' E 135°11'0 0.0
2018-Apr-16 20:00N 34°41' E 135°11'0 0.0
2018-Apr-16 19:30N 34°41' E 135°11'0 0.0
2018-Apr-16 19:00N 34°41' E 135°11'0 0.0
2018-Apr-16 18:30N 34°41' E 135°11'0 0.0
2018-Apr-16 18:00N 34°41' E 135°11'0 0.0
2018-Apr-16 17:30N 34°41' E 135°11'0 0.0
2018-Apr-16 17:00N 34°41' E 135°11'0 0.0
2018-Apr-16 16:30N 34°41' E 135°11'0 0.0
2018-Apr-16 16:00N 34°41' E 135°11'0 0.0
2018-Apr-16 15:30N 34°41' E 135°11'0 0.0
2018-Apr-16 15:00N 34°41' E 135°11'0 0.0
2018-Apr-16 14:30N 34°41' E 135°11'0 0.0
2018-Apr-16 14:00N 34°41' E 135°11'0 0.0
2018-Apr-16 13:30N 34°41' E 135°11'0 0.0
2018-Apr-16 13:00N 34°41' E 135°11'0 0.0
2018-Apr-16 12:30N 34°41' E 135°11'1 3.0
2018-Apr-16 12:00N 34°39' E 135°11'713.5
2018-Apr-16 11:30N 34°35' E 135°05'611.5
2018-Apr-16 11:01N 34°37' E 134°59'713.2
2018-Apr-16 10:30N 34°37' E 135°07'510.9
2018-Apr-16 10:00N 34°41' E 135°11'0 0.0
2018-Apr-16 09:30N 34°41' E 135°11'1 2.6
2018-Apr-16 09:00N 34°40' E 135°11'4 8.7
2018-Apr-16 08:31N 34°37' E 135°07'510.0
2018-Apr-16 08:00N 34°41' E 135°11'0 0.0
2018-Apr-16 07:30N 34°41' E 135°11'0 0.0
2018-Apr-16 07:00N 34°41' E 135°11'0 0.0
2018-Apr-16 06:30N 34°41' E 135°11'0 0.0
2018-Apr-16 06:00N 34°41' E 135°11'0 0.0
2018-Apr-16 05:30N 34°41' E 135°11'0 0.0
2018-Apr-16 05:00N 34°41' E 135°11'3 5.3
2018-Apr-16 04:30N 34°38' E 135°10'3 6.3
2018-Apr-16 04:00N 34°37' E 135°07'5 9.0
2018-Apr-16 03:30N 34°38' E 135°12'3 6.8
2018-Apr-16 03:01N 34°41' E 135°11'0 0.0
2018-Apr-16 02:30N 34°41' E 135°11'0 0.0
2018-Apr-16 02:01N 34°41' E 135°11'0 0.0
2018-Apr-16 01:31N 34°41' E 135°11'0 0.0
2018-Apr-16 01:01N 34°41' E 135°11'0 0.0
2018-Apr-16 00:30N 34°41' E 135°11'0 0.0
2018-Apr-16 00:00N 34°41' E 135°11'0 0.0
2018-Apr-15 23:30N 34°41' E 135°11'0 0.0
2018-Apr-15 23:01N 34°41' E 135°11'0 0.0
2018-Apr-15 22:30N 34°41' E 135°11'0 0.0
2018-Apr-15 22:01N 34°41' E 135°11'0 0.0
2018-Apr-15 21:31N 34°41' E 135°11'0 0.0
2018-Apr-15 21:00N 34°41' E 135°11'0 0.0
2018-Apr-15 20:31N 34°41' E 135°11'0 0.0
2018-Apr-15 20:01N 34°41' E 135°11'0 0.0
2018-Apr-15 19:31N 34°41' E 135°11'0 0.0
2018-Apr-15 19:00N 34°41' E 135°11'0 0.0
2018-Apr-15 18:30N 34°41' E 135°11'0 0.0
2018-Apr-15 18:01N 34°41' E 135°11'0 0.0
2018-Apr-15 17:30N 34°41' E 135°11'0 0.0
2018-Apr-15 17:00N 34°41' E 135°11'0 0.0
2018-Apr-15 16:31N 34°41' E 135°11'0 0.0
2018-Apr-15 16:01N 34°41' E 135°11'0 0.0
2018-Apr-15 15:31N 34°41' E 135°11'0 0.0
2018-Apr-15 15:01N 34°41' E 135°11'0 0.0
2018-Apr-15 14:31N 34°41' E 135°11'0 0.0
2018-Apr-15 14:00N 34°41' E 135°11'0 0.0
2018-Apr-15 13:30N 34°41' E 135°11'0 0.0
2018-Apr-15 13:00N 34°41' E 135°11'0 0.0
2018-Apr-15 12:31N 34°41' E 135°11'1 2.9
2018-Apr-15 12:00N 34°39' E 135°11'611.6
2018-Apr-15 11:30N 34°35' E 135°06'611.8
2018-Apr-15 11:00N 34°37' E 134°59'612.9
2018-Apr-15 10:30N 34°37' E 135°07'510.9
2018-Apr-15 10:00N 34°41' E 135°11'0 0.0
2018-Apr-15 09:30N 34°41' E 135°11'0 0.0
2018-Apr-15 09:00N 34°41' E 135°11'3 5.1
2018-Apr-15 08:30N 34°38' E 135°10'  
Track history (hours):
 
Tides and Currents Weather Stations Pressure Air Temp Water Temp Dewpoint Dewpoint Depression Visibility Wind Speed Wind Dir Waves Ship Positions

Luminous Kobe-2

Last reported at 2018-Apr-25 09:00 UTC. Time now 2018-Apr-25 08:59 UTC.
Position N 34°40' E 135°12'.

Length 105 m; draft 4.4 m.

Type: Passenger vessel. MMSI: 431000469.

Date/timePositionNaut miles runAvg speedWind from/ knotsBaromVisibWave heightAir tempDewpointWater temp
2018-Apr-25 09:00N 34°40' E 135°12'4 8.8
2018-Apr-25 08:30N 34°37' E 135°07'5 9.8
2018-Apr-25 08:00N 34°41' E 135°11'0 0.0
2018-Apr-25 07:30N 34°41' E 135°11'0 0.0
2018-Apr-25 07:00N 34°41' E 135°11'0 0.0
2018-Apr-25 06:30N 34°41' E 135°11'0 0.0
2018-Apr-25 06:00N 34°41' E 135°11'0 0.0
2018-Apr-25 05:30N 34°41' E 135°11'0 0.0
2018-Apr-25 05:00N 34°41' E 135°11'2 4.9
2018-Apr-25 04:30N 34°38' E 135°11'4 7.1
2018-Apr-25 04:01N 34°37' E 135°07'5 9.4
2018-Apr-25 03:30N 34°38' E 135°13'3 6.9
2018-Apr-25 03:00N 34°41' E 135°11'0 0.0
2018-Apr-25 02:30N 34°41' E 135°11'0 0.0
2018-Apr-25 02:00N 34°41' E 135°11'0 0.0
2018-Apr-25 01:30N 34°41' E 135°11'0 0.0
2018-Apr-25 01:00N 34°41' E 135°11'0 0.0
2018-Apr-25 00:30N 34°41' E 135°11'0 0.0
2018-Apr-25 00:00N 34°41' E 135°11'0 0.0
2018-Apr-24 23:30N 34°41' E 135°11'0 0.0
2018-Apr-24 23:00N 34°41' E 135°11'0 0.0
2018-Apr-24 22:30N 34°41' E 135°11'0 0.0
2018-Apr-24 22:00N 34°41' E 135°11'0 0.0
2018-Apr-24 21:30N 34°41' E 135°11'0 0.0
2018-Apr-24 21:00N 34°41' E 135°11'0 0.0
2018-Apr-24 20:30N 34°41' E 135°11'0 0.0
2018-Apr-24 20:00N 34°41' E 135°11'0 0.0
2018-Apr-24 19:30N 34°41' E 135°11'0 0.0
2018-Apr-24 19:00N 34°41' E 135°11'0 0.0
2018-Apr-24 18:30N 34°41' E 135°11'0 0.0
2018-Apr-24 18:00N 34°41' E 135°11'0 0.0
2018-Apr-24 17:30N 34°41' E 135°11'0 0.0
2018-Apr-24 17:00N 34°41' E 135°11'0 0.0
2018-Apr-24 16:30N 34°41' E 135°11'0 0.0
2018-Apr-24 16:00N 34°41' E 135°11'0 0.0
2018-Apr-24 15:30N 34°41' E 135°11'0 0.0
2018-Apr-24 15:00N 34°41' E 135°11'0 0.0
2018-Apr-24 14:30N 34°41' E 135°11'0 0.0
2018-Apr-24 14:00N 34°41' E 135°11'0 0.0
2018-Apr-24 13:30N 34°41' E 135°11'0 0.0
2018-Apr-24 13:00N 34°41' E 135°11'0 0.0
2018-Apr-24 12:30N 34°41' E 135°11'1 2.5
2018-Apr-24 12:00N 34°40' E 135°11'713.3
2018-Apr-24 11:30N 34°35' E 135°05'611.1
2018-Apr-24 11:00N 34°38' E 134°59'612.7
2018-Apr-24 10:31N 34°37' E 135°07'510.4
2018-Apr-24 10:00N 34°41' E 135°11'0 0.0
2018-Apr-24 09:30N 34°41' E 135°11'1 1.9
2018-Apr-24 09:00N 34°40' E 135°12'4 9.0
2018-Apr-24 08:30N 34°37' E 135°07'5 9.8
2018-Apr-24 08:00N 34°41' E 135°11'0 0.0
2018-Apr-24 07:30N 34°41' E 135°11'0 0.0
2018-Apr-24 07:00N 34°41' E 135°11'0 0.0
2018-Apr-24 06:30N 34°41' E 135°11'0 0.0
2018-Apr-24 06:00N 34°41' E 135°11'0 0.0
2018-Apr-24 05:30N 34°41' E 135°11'0 0.0
2018-Apr-24 05:00N 34°41' E 135°11'3 5.6
2018-Apr-24 04:30N 34°38' E 135°10'2 4.6
2018-Apr-24 04:00N 34°37' E 135°08'3 6.9
2018-Apr-24 03:30N 34°37' E 135°12'3 6.9
2018-Apr-24 03:00N 34°41' E 135°11'0 0.0
2018-Apr-24 02:30N 34°41' E 135°11'0 0.0
2018-Apr-24 02:00N 34°41' E 135°11'0 0.0
2018-Apr-24 01:30N 34°41' E 135°11'0 0.0
2018-Apr-24 01:00N 34°41' E 135°11'0 0.0
2018-Apr-24 00:30N 34°41' E 135°11'0 0.0
2018-Apr-24 00:00N 34°41' E 135°11'0 0.0
2018-Apr-23 23:30N 34°41' E 135°11'0 0.0
2018-Apr-23 23:00N 34°41' E 135°11'0 0.0
2018-Apr-23 22:30N 34°41' E 135°11'0 0.0
2018-Apr-23 22:00N 34°41' E 135°11'0 0.0
2018-Apr-23 21:30N 34°41' E 135°11'0 0.0
2018-Apr-23 21:00N 34°41' E 135°11'0 0.0
2018-Apr-23 20:30N 34°41' E 135°11'0 0.0
2018-Apr-23 20:00N 34°41' E 135°11'0 0.0
2018-Apr-23 19:30N 34°41' E 135°11'0 0.0
2018-Apr-23 19:00N 34°41' E 135°11'0 0.0
2018-Apr-23 18:30N 34°41' E 135°11'0 0.0
2018-Apr-23 18:00N 34°41' E 135°11'0 0.0
2018-Apr-23 17:30N 34°41' E 135°11'0 0.0
2018-Apr-23 17:00N 34°41' E 135°11'0 0.0
2018-Apr-23 16:30N 34°41' E 135°11'0 0.0
2018-Apr-23 16:00N 34°41' E 135°11'0 0.0
2018-Apr-23 15:30N 34°41' E 135°11'0 0.0
2018-Apr-23 15:00N 34°41' E 135°11'0 0.0
2018-Apr-23 14:30N 34°41' E 135°11'0 0.0
2018-Apr-23 14:00N 34°41' E 135°11'0 0.0
2018-Apr-23 13:30N 34°41' E 135°11'0 0.0
2018-Apr-23 13:00N 34°41' E 135°11'0 0.0
2018-Apr-23 12:30N 34°41' E 135°11'2 3.8
2018-Apr-23 12:00N 34°39' E 135°11'612.5
2018-Apr-23 11:31N 34°35' E 135°05'510.0
2018-Apr-23 11:00N 34°38' E 135°00'611.9
2018-Apr-23 10:30N 34°37' E 135°07'510.1
2018-Apr-23 10:00N 34°41' E 135°11'0 0.0
2018-Apr-23 09:28N 34°41' E 135°11'1 2.2
2018-Apr-23 09:00N 34°40' E 135°12'4 8.7
2018-Apr-23 08:30N 34°37' E 135°07'5 9.8
2018-Apr-23 08:00N 34°41' E 135°11'0 0.0
2018-Apr-23 07:28N 34°41' E 135°11'0 0.0
2018-Apr-23 06:58N 34°41' E 135°11'0 0.0
2018-Apr-23 06:28N 34°41' E 135°11'0 0.0
2018-Apr-23 05:58N 34°41' E 135°11'0 0.0
2018-Apr-23 05:28N 34°41' E 135°11'0 0.0
2018-Apr-23 05:01N 34°41' E 135°11'3 5.9
2018-Apr-23 04:30N 34°38' E 135°10'4 7.4
2018-Apr-23 04:00N 34°37' E 135°06'510.7
2018-Apr-23 03:30N 34°37' E 135°12'3 7.0
2018-Apr-23 03:00N 34°41' E 135°11'0 0.0
2018-Apr-23 02:28N 34°41' E 135°11'0 0.0
2018-Apr-23 01:58N 34°41' E 135°11'0 0.0
2018-Apr-23 01:28N 34°41' E 135°11'0 0.0
2018-Apr-23 00:58N 34°41' E 135°11'0 0.0
2018-Apr-23 00:28N 34°41' E 135°11'0 0.0
2018-Apr-22 23:58N 34°41' E 135°11'0 0.0
2018-Apr-22 23:28N 34°41' E 135°11'0 0.0
2018-Apr-22 22:58N 34°41' E 135°11'0 0.0
2018-Apr-22 22:28N 34°41' E 135°11'0 0.0
2018-Apr-22 21:58N 34°41' E 135°11'0 0.0
2018-Apr-22 21:28N 34°41' E 135°11'0 0.0
2018-Apr-22 20:58N 34°41' E 135°11'0 0.0
2018-Apr-22 20:28N 34°41' E 135°11'0 0.0
2018-Apr-22 19:58N 34°41' E 135°11'0 0.0
2018-Apr-22 19:28N 34°41' E 135°11'0 0.0
2018-Apr-22 18:58N 34°41' E 135°11'0 0.0
2018-Apr-22 18:28N 34°41' E 135°11'0 0.0
2018-Apr-22 17:58N 34°41' E 135°11'0 0.0
2018-Apr-22 17:28N 34°41' E 135°11'0 0.0
2018-Apr-22 16:58N 34°41' E 135°11'0 0.0
2018-Apr-22 16:28N 34°41' E 135°11'0 0.0
2018-Apr-22 15:58N 34°41' E 135°11'0 0.0
2018-Apr-22 15:28N 34°41' E 135°11'0 0.0
2018-Apr-22 14:58N 34°41' E 135°11'0 0.0
2018-Apr-22 14:28N 34°41' E 135°11'0 0.0
2018-Apr-22 13:58N 34°41' E 135°11'0 0.0
2018-Apr-22 13:28N 34°41' E 135°11'0 0.0
2018-Apr-22 12:58N 34°41' E 135°11'0 0.0
2018-Apr-22 12:28N 34°41' E 135°11'1 2.5
2018-Apr-22 12:00N 34°40' E 135°12'612.2
2018-Apr-22 11:30N 34°35' E 135°06'611.6
2018-Apr-22 11:00N 34°38' E 134°60'611.9
2018-Apr-22 10:30N 34°37' E 135°07'510.3
2018-Apr-22 10:01N 34°41' E 135°11'0 0.0
2018-Apr-22 09:29N 34°41' E 135°11'0 0.0
2018-Apr-22 08:59N 34°41' E 135°11'2 4.5
2018-Apr-22 08:30N 34°39' E 135°11'3 6.6
2018-Apr-22 08:00N 34°37' E 135°08'4 7.3
2018-Apr-22 07:30N 34°37' E 135°12'3 6.8
2018-Apr-22 07:01N 34°41' E 135°11'0 0.0
2018-Apr-22 06:28N 34°41' E 135°11'0 0.0
2018-Apr-22 05:58N 34°41' E 135°11'0 0.0
2018-Apr-22 05:28N 34°41' E 135°11'0 0.0
2018-Apr-22 05:00N 34°41' E 135°11'2 4.8
2018-Apr-22 04:30N 34°38' E 135°11'3 6.3
2018-Apr-22 04:00N 34°37' E 135°08'4 8.5
2018-Apr-22 03:30N 34°38' E 135°13'3 6.9
2018-Apr-22 03:00N 34°41' E 135°11'0 0.0
2018-Apr-22 02:29N 34°41' E 135°11'0 0.0
2018-Apr-22 01:59N 34°41' E 135°11'0 0.0
2018-Apr-22 01:29N 34°41' E 135°11'0 0.0
2018-Apr-22 00:59N 34°41' E 135°11'0 0.0
2018-Apr-22 00:29N 34°41' E 135°11'0 0.0
2018-Apr-21 23:59N 34°41' E 135°11'0 0.0
2018-Apr-21 23:29N 34°41' E 135°11'0 0.0
2018-Apr-21 22:59N 34°41' E 135°11'0 0.0
2018-Apr-21 22:29N 34°41' E 135°11'0 0.0
2018-Apr-21 21:59N 34°41' E 135°11'0 0.0
2018-Apr-21 21:29N 34°41' E 135°11'0 0.0
2018-Apr-21 20:59N 34°41' E 135°11'0 0.0
2018-Apr-21 20:29N 34°41' E 135°11'0 0.0
2018-Apr-21 19:59N 34°41' E 135°11'0 0.0
2018-Apr-21 19:29N 34°41' E 135°11'0 0.0
2018-Apr-21 18:59N 34°41' E 135°11'0 0.0
2018-Apr-21 18:29N 34°41' E 135°11'0 0.0
2018-Apr-21 17:59N 34°41' E 135°11'0 0.0
2018-Apr-21 17:29N 34°41' E 135°11'0 0.0
2018-Apr-21 16:59N 34°41' E 135°11'0 0.0
2018-Apr-21 16:29N 34°41' E 135°11'0 0.0
2018-Apr-21 15:59N 34°41' E 135°11'0 0.0
2018-Apr-21 15:29N 34°41' E 135°11'0 0.0
2018-Apr-21 14:59N 34°41' E 135°11'0 0.0
2018-Apr-21 14:29N 34°41' E 135°11'0 0.0
2018-Apr-21 13:59N 34°41' E 135°11'0 0.0
2018-Apr-21 13:29N 34°41' E 135°11'0 0.0
2018-Apr-21 12:59N 34°41' E 135°11'0 0.0
2018-Apr-21 12:29N 34°41' E 135°11'1 3.1
2018-Apr-21 12:00N 34°39' E 135°11'612.6
2018-Apr-21 11:30N 34°35' E 135°06'611.0
2018-Apr-21 11:00N 34°37' E 134°60'612.9
2018-Apr-21 10:30N 34°37' E 135°07'5 9.8
2018-Apr-21 10:00N 34°41' E 135°11'0 0.0
2018-Apr-21 09:29N 34°41' E 135°11'0 0.0
2018-Apr-21 08:59N 34°41' E 135°11'2 4.3
2018-Apr-21 08:30N 34°39' E 135°11'4 8.3
2018-Apr-21 08:00N 34°37' E 135°07'510.7
2018-Apr-21 07:30N 34°37' E 135°13'4 7.6
2018-Apr-21 07:00N 34°41' E 135°11'0 0.0
2018-Apr-21 06:29N 34°41' E 135°11'0 0.0
2018-Apr-21 05:59N 34°41' E 135°11'0 0.0
2018-Apr-21 05:29N 34°41' E 135°11'0 0.0
2018-Apr-21 05:01N 34°41' E 135°11'3 5.5
2018-Apr-21 04:30N 34°38' E 135°11'4 7.3
2018-Apr-21 04:00N 34°36' E 135°07'510.1
2018-Apr-21 03:30N 34°38' E 135°13'3 6.9
2018-Apr-21 03:01N 34°41' E 135°11'0 0.0
2018-Apr-21 02:28N 34°41' E 135°11'0 0.0
2018-Apr-21 01:58N 34°41' E 135°11'0 0.0
2018-Apr-21 01:28N 34°41' E 135°11'0 0.0
2018-Apr-21 00:58N 34°41' E 135°11'0 0.0
2018-Apr-21 00:28N 34°41' E 135°11'0 0.0
2018-Apr-20 23:58N 34°41' E 135°11'0 0.0
2018-Apr-20 23:28N 34°41' E 135°11'0 0.0
2018-Apr-20 22:58N 34°41' E 135°11'0 0.0
2018-Apr-20 22:28N 34°41' E 135°11'0 0.0
2018-Apr-20 21:58N 34°41' E 135°11'0 0.0
2018-Apr-20 21:28N 34°41' E 135°11'0 0.0
2018-Apr-20 20:58N 34°41' E 135°11'0 0.0
2018-Apr-20 20:28N 34°41' E 135°11'0 0.0
2018-Apr-20 19:58N 34°41' E 135°11'0 0.0
2018-Apr-20 19:28N 34°41' E 135°11'0 0.0
2018-Apr-20 18:58N 34°41' E 135°11'0 0.0
2018-Apr-20 18:28N 34°41' E 135°11'0 0.0
2018-Apr-20 17:58N 34°41' E 135°11'0 0.0
2018-Apr-20 17:28N 34°41' E 135°11'0 0.0
2018-Apr-20 16:58N 34°41' E 135°11'0 0.0
2018-Apr-20 16:28N 34°41' E 135°11'0 0.0
2018-Apr-20 15:58N 34°41' E 135°11'0 0.0
2018-Apr-20 15:28N 34°41' E 135°11'0 0.0
2018-Apr-20 14:58N 34°41' E 135°11'0 0.0
2018-Apr-20 14:28N 34°41' E 135°11'0 0.0
2018-Apr-20 13:58N 34°41' E 135°11'0 0.0
2018-Apr-20 13:28N 34°41' E 135°11'0 0.0
2018-Apr-20 12:58N 34°41' E 135°11'0 0.0
2018-Apr-20 12:28N 34°41' E 135°11'1 3.0
2018-Apr-20 12:00N 34°39' E 135°11'611.7
2018-Apr-20 11:30N 34°35' E 135°06'613.0
2018-Apr-20 11:01N 34°37' E 134°59'713.6
2018-Apr-20 10:30N 34°37' E 135°07'510.2
2018-Apr-20 10:00N 34°41' E 135°11'0 0.0
2018-Apr-20 09:30N 34°41' E 135°11'1 2.1
2018-Apr-20 09:01N 34°40' E 135°12'4 8.2
2018-Apr-20 08:30N 34°38' E 135°07'5 9.2
2018-Apr-20 08:00N 34°41' E 135°11'0 0.0
2018-Apr-20 07:28N 34°41' E 135°11'0 0.0
2018-Apr-20 06:58N 34°41' E 135°11'0 0.0
2018-Apr-20 06:28N 34°41' E 135°11'0 0.0
2018-Apr-20 05:58N 34°41' E 135°11'0 0.0
2018-Apr-20 05:28N 34°41' E 135°11'0 0.0
2018-Apr-20 05:00N 34°41' E 135°11'3 5.0
2018-Apr-20 04:30N 34°38' E 135°11'2 4.9
2018-Apr-20 04:00N 34°37' E 135°08'3 6.7
2018-Apr-20 03:30N 34°38' E 135°12'3 6.8
2018-Apr-20 03:01N 34°41' E 135°11'0 0.0
2018-Apr-20 02:28N 34°41' E 135°11'0 0.0
2018-Apr-20 01:58N 34°41' E 135°11'0 0.0
2018-Apr-20 01:28N 34°41' E 135°11'0 0.0
2018-Apr-20 00:58N 34°41' E 135°11'0 0.0
2018-Apr-20 00:28N 34°41' E 135°11'0 0.0
2018-Apr-19 23:58N 34°41' E 135°11'0 0.0
2018-Apr-19 23:28N 34°41' E 135°11'0 0.0
2018-Apr-19 22:58N 34°41' E 135°11'0 0.0
2018-Apr-19 22:28N 34°41' E 135°11'0 0.0
2018-Apr-19 21:58N 34°41' E 135°11'0 0.0
2018-Apr-19 21:28N 34°41' E 135°11'0 0.0
2018-Apr-19 20:58N 34°41' E 135°11'0 0.0
2018-Apr-19 20:28N 34°41' E 135°11'0 0.0
2018-Apr-19 19:58N 34°41' E 135°11'0 0.0
2018-Apr-19 19:28N 34°41' E 135°11'0 0.0
2018-Apr-19 18:58N 34°41' E 135°11'0 0.0
2018-Apr-19 18:28N 34°41' E 135°11'0 0.0
2018-Apr-19 17:58N 34°41' E 135°11'0 0.0
2018-Apr-19 17:28N 34°41' E 135°11'0 0.0
2018-Apr-19 16:58N 34°41' E 135°11'0 0.0
2018-Apr-19 16:28N 34°41' E 135°11'0 0.0
2018-Apr-19 15:58N 34°41' E 135°11'0 0.0
2018-Apr-19 15:28N 34°41' E 135°11'0 0.0
2018-Apr-19 14:58N 34°41' E 135°11'0 0.0
2018-Apr-19 14:28N 34°41' E 135°11'0 0.0
2018-Apr-19 13:58N 34°41' E 135°11'0 0.0
2018-Apr-19 13:28N 34°41' E 135°11'0 0.0
2018-Apr-19 12:58N 34°41' E 135°11'0 0.0
2018-Apr-19 12:28N 34°41' E 135°11'2 3.5
2018-Apr-19 12:00N 34°39' E 135°11'611.1
2018-Apr-19 11:30N 34°36' E 135°06'612.2
2018-Apr-19 11:00N 34°37' E 134°59'612.7
2018-Apr-19 10:31N 34°37' E 135°07'510.6
2018-Apr-19 10:00N 34°41' E 135°11'0 0.0
2018-Apr-19 09:30N 34°41' E 135°11'1 2.0
2018-Apr-19 09:00N 34°40' E 135°12'4 8.7
2018-Apr-19 08:30N 34°38' E 135°07'5 9.6
2018-Apr-19 08:00N 34°41' E 135°11'0 0.0
2018-Apr-19 07:29N 34°41' E 135°11'0 0.0
2018-Apr-19 06:59N 34°41' E 135°11'0 0.0
2018-Apr-19 06:29N 34°41' E 135°11'0 0.0
2018-Apr-19 05:59N 34°41' E 135°11'0 0.0
2018-Apr-19 05:29N 34°41' E 135°11'0 0.0
2018-Apr-19 05:01N 34°41' E 135°11'3 5.1
2018-Apr-19 04:30N 34°38' E 135°11'4 7.4
2018-Apr-19 04:00N 34°37' E 135°07'510.0
2018-Apr-19 03:30N 34°38' E 135°13'3 6.9
2018-Apr-19 03:00N 34°41' E 135°11'0 0.0
2018-Apr-19 02:30N 34°41' E 135°11'0 0.0
2018-Apr-19 02:00N 34°41' E 135°11'0 0.0
2018-Apr-19 01:30N 34°41' E 135°11'0 0.0
2018-Apr-19 01:00N 34°41' E 135°11'0 0.0
2018-Apr-19 00:30N 34°41' E 135°11'0 0.0
2018-Apr-19 00:00N 34°41' E 135°11'0 0.0
2018-Apr-18 23:30N 34°41' E 135°11'0 0.0
2018-Apr-18 23:00N 34°41' E 135°11'0 0.0
2018-Apr-18 22:30N 34°41' E 135°11'0 0.0
2018-Apr-18 22:00N 34°41' E 135°11'0 0.0
2018-Apr-18 21:30N 34°41' E 135°11'0 0.0
2018-Apr-18 21:00N 34°41' E 135°11'0 0.0
2018-Apr-18 20:30N 34°41' E 135°11'0 0.0
2018-Apr-18 20:00N 34°41' E 135°11'0 0.0
2018-Apr-18 19:30N 34°41' E 135°11'0 0.0
2018-Apr-18 19:00N 34°41' E 135°11'0 0.0
2018-Apr-18 18:30N 34°41' E 135°11'0 0.0
2018-Apr-18 18:00N 34°41' E 135°11'0 0.0
2018-Apr-18 17:30N 34°41' E 135°11'0 0.0
2018-Apr-18 17:00N 34°41' E 135°11'0 0.0
2018-Apr-18 16:30N 34°41' E 135°11'0 0.0
2018-Apr-18 16:00N 34°41' E 135°11'0 0.0
2018-Apr-18 15:30N 34°41' E 135°11'0 0.0
2018-Apr-18 15:00N 34°41' E 135°11'0 0.0
2018-Apr-18 14:30N 34°41' E 135°11'0 0.0
2018-Apr-18 14:00N 34°41' E 135°11'0 0.0
2018-Apr-18 13:30N 34°41' E 135°11'0 0.0
2018-Apr-18 13:00N 34°41' E 135°11'0 0.0
2018-Apr-18 12:30N 34°41' E 135°11'2 3.6
2018-Apr-18 12:00N 34°39' E 135°11'612.2
2018-Apr-18 11:31N 34°35' E 135°06'611.3
2018-Apr-18 11:00N 34°37' E 134°59'612.9
2018-Apr-18 10:31N 34°37' E 135°07'510.6
2018-Apr-18 10:00N 34°41' E 135°11'0 0.0
2018-Apr-18 09:26N 34°41' E 135°11'1 2.5
2018-Apr-18 09:01N 34°40' E 135°12'4 8.6
2018-Apr-18 08:30N 34°37' E 135°07'5 9.7
2018-Apr-18 08:01N 34°41' E 135°11'0 0.0
2018-Apr-18 07:30N 34°41' E 135°11'0 0.0
2018-Apr-18 07:00N 34°41' E 135°11'0 0.0
2018-Apr-18 06:31N 34°41' E 135°11'0 0.0
2018-Apr-18 06:01N 34°41' E 135°11'0 0.0
2018-Apr-18 05:30N 34°41' E 135°11'0 0.0
2018-Apr-18 05:00N 34°41' E 135°11'2 5.0
2018-Apr-18 04:30N 34°38' E 135°11'3 5.2
2018-Apr-18 04:01N 34°37' E 135°08'3 6.8
2018-Apr-18 03:30N 34°37' E 135°12'3 6.9
2018-Apr-18 03:00N 34°41' E 135°11'0 0.0
2018-Apr-18 02:28N 34°41' E 135°11'0 0.0
2018-Apr-18 01:58N 34°41' E 135°11'0 0.0
2018-Apr-18 01:28N 34°41' E 135°11'0 0.0
2018-Apr-18 00:58N 34°41' E 135°11'0 0.0
2018-Apr-18 00:28N 34°41' E 135°11'0 0.0
2018-Apr-17 23:58N 34°41' E 135°11'0 0.0
2018-Apr-17 23:28N 34°41' E 135°11'0 0.0
2018-Apr-17 22:58N 34°41' E 135°11'0 0.0
2018-Apr-17 22:28N 34°41' E 135°11'0 0.0
2018-Apr-17 21:58N 34°41' E 135°11'0 0.0
2018-Apr-17 21:28N 34°41' E 135°11'0 0.0
2018-Apr-17 20:58N 34°41' E 135°11'0 0.0
2018-Apr-17 20:28N 34°41' E 135°11'0 0.0
2018-Apr-17 19:58N 34°41' E 135°11'0 0.0
2018-Apr-17 19:28N 34°41' E 135°11'0 0.0
2018-Apr-17 18:58N 34°41' E 135°11'0 0.0
2018-Apr-17 18:28N 34°41' E 135°11'0 0.0
2018-Apr-17 17:58N 34°41' E 135°11'0 0.0
2018-Apr-17 17:28N 34°41' E 135°11'0 0.0
2018-Apr-17 16:58N 34°41' E 135°11'0 0.0
2018-Apr-17 16:28N 34°41' E 135°11'0 0.0
2018-Apr-17 15:58N 34°41' E 135°11'0 0.0
2018-Apr-17 15:28N 34°41' E 135°11'0 0.0
2018-Apr-17 14:58N 34°41' E 135°11'0 0.0
2018-Apr-17 14:28N 34°41' E 135°11'0 0.0
2018-Apr-17 13:58N 34°41' E 135°11'0 0.0
2018-Apr-17 13:25N 34°41' E 135°11'0 0.0
2018-Apr-17 12:58N 34°41' E 135°11'0 0.0
2018-Apr-17 12:28N 34°41' E 135°11'2 3.7
2018-Apr-17 12:00N 34°39' E 135°11'611.9
2018-Apr-17 11:30N 34°35' E 135°06'611.2
2018-Apr-17 11:00N 34°37' E 134°59'612.5
2018-Apr-17 10:30N 34°37' E 135°07'510.7
2018-Apr-17 10:00N 34°41' E 135°11'0 0.0
2018-Apr-17 09:30N 34°41' E 135°11'1 2.5
2018-Apr-17 09:00N 34°40' E 135°11'4 8.6
2018-Apr-17 08:30N 34°37' E 135°07'5 9.9
2018-Apr-17 08:00N 34°41' E 135°11'0 0.0
2018-Apr-17 07:30N 34°41' E 135°11'0 0.0
2018-Apr-17 07:00N 34°41' E 135°11'0 0.0
2018-Apr-17 06:30N 34°41' E 135°11'0 0.0
2018-Apr-17 06:00N 34°41' E 135°11'0 0.0
2018-Apr-17 05:30N 34°41' E 135°11'0 0.0
2018-Apr-17 05:00N 34°41' E 135°11'3 5.1
2018-Apr-17 04:30N 34°38' E 135°11'4 8.0
2018-Apr-17 04:00N 34°36' E 135°07'5 9.8
2018-Apr-17 03:30N 34°37' E 135°12'3 7.0
2018-Apr-17 03:00N 34°41' E 135°11'0 0.0
2018-Apr-17 02:30N 34°41' E 135°11'0 0.0
2018-Apr-17 02:00N 34°41' E 135°11'0 0.0
2018-Apr-17 01:30N 34°41' E 135°11'0 0.0
2018-Apr-17 01:00N 34°41' E 135°11'0 0.0
2018-Apr-17 00:30N 34°41' E 135°11'0 0.0
2018-Apr-17 00:00N 34°41' E 135°11'0 0.0
2018-Apr-16 23:30N 34°41' E 135°11'0 0.0
2018-Apr-16 23:00N 34°41' E 135°11'0 0.0
2018-Apr-16 22:30N 34°41' E 135°11'0 0.0
2018-Apr-16 22:00N 34°41' E 135°11'0 0.0
2018-Apr-16 21:30N 34°41' E 135°11'0 0.0
2018-Apr-16 21:00N 34°41' E 135°11'0 0.0
2018-Apr-16 20:30N 34°41' E 135°11'0 0.0
2018-Apr-16 20:00N 34°41' E 135°11'0 0.0
2018-Apr-16 19:30N 34°41' E 135°11'0 0.0
2018-Apr-16 19:00N 34°41' E 135°11'0 0.0
2018-Apr-16 18:30N 34°41' E 135°11'0 0.0
2018-Apr-16 18:00N 34°41' E 135°11'0 0.0
2018-Apr-16 17:30N 34°41' E 135°11'0 0.0
2018-Apr-16 17:00N 34°41' E 135°11'0 0.0
2018-Apr-16 16:30N 34°41' E 135°11'0 0.0
2018-Apr-16 16:00N 34°41' E 135°11'0 0.0
2018-Apr-16 15:30N 34°41' E 135°11'0 0.0
2018-Apr-16 15:00N 34°41' E 135°11'0 0.0
2018-Apr-16 14:30N 34°41' E 135°11'0 0.0
2018-Apr-16 14:00N 34°41' E 135°11'0 0.0
2018-Apr-16 13:30N 34°41' E 135°11'0 0.0
2018-Apr-16 13:00N 34°41' E 135°11'0 0.0
2018-Apr-16 12:30N 34°41' E 135°11'1 3.0
2018-Apr-16 12:00N 34°39' E 135°11'713.5
2018-Apr-16 11:30N 34°35' E 135°05'611.5
2018-Apr-16 11:01N 34°37' E 134°59'713.2
2018-Apr-16 10:30N 34°37' E 135°07'510.9
2018-Apr-16 10:00N 34°41' E 135°11'0 0.0
2018-Apr-16 09:30N 34°41' E 135°11'1 2.6
2018-Apr-16 09:00N 34°40' E 135°11'4 8.7
2018-Apr-16 08:31N 34°37' E 135°07'510.0
2018-Apr-16 08:00N 34°41' E 135°11'0 0.0
2018-Apr-16 07:30N 34°41' E 135°11'0 0.0
2018-Apr-16 07:00N 34°41' E 135°11'0 0.0
2018-Apr-16 06:30N 34°41' E 135°11'0 0.0
2018-Apr-16 06:00N 34°41' E 135°11'0 0.0
2018-Apr-16 05:30N 34°41' E 135°11'0 0.0
2018-Apr-16 05:00N 34°41' E 135°11'3 5.3
2018-Apr-16 04:30N 34°38' E 135°10'3 6.3
2018-Apr-16 04:00N 34°37' E 135°07'5 9.0
2018-Apr-16 03:30N 34°38' E 135°12'3 6.8
2018-Apr-16 03:01N 34°41' E 135°11'0 0.0
2018-Apr-16 02:30N 34°41' E 135°11'0 0.0
2018-Apr-16 02:01N 34°41' E 135°11'0 0.0
2018-Apr-16 01:31N 34°41' E 135°11'0 0.0
2018-Apr-16 01:01N 34°41' E 135°11'0 0.0
2018-Apr-16 00:30N 34°41' E 135°11'0 0.0
2018-Apr-16 00:00N 34°41' E 135°11'0 0.0
2018-Apr-15 23:30N 34°41' E 135°11'0 0.0
2018-Apr-15 23:01N 34°41' E 135°11'0 0.0
2018-Apr-15 22:30N 34°41' E 135°11'0 0.0
2018-Apr-15 22:01N 34°41' E 135°11'0 0.0
2018-Apr-15 21:31N 34°41' E 135°11'0 0.0
2018-Apr-15 21:00N 34°41' E 135°11'0 0.0
2018-Apr-15 20:31N 34°41' E 135°11'0 0.0
2018-Apr-15 20:01N 34°41' E 135°11'0 0.0
2018-Apr-15 19:31N 34°41' E 135°11'0 0.0
2018-Apr-15 19:00N 34°41' E 135°11'0 0.0
2018-Apr-15 18:30N 34°41' E 135°11'0 0.0
2018-Apr-15 18:01N 34°41' E 135°11'0 0.0
2018-Apr-15 17:30N 34°41' E 135°11'0 0.0
2018-Apr-15 17:00N 34°41' E 135°11'0 0.0
2018-Apr-15 16:31N 34°41' E 135°11'0 0.0
2018-Apr-15 16:01N 34°41' E 135°11'0 0.0
2018-Apr-15 15:31N 34°41' E 135°11'0 0.0
2018-Apr-15 15:01N 34°41' E 135°11'0 0.0
2018-Apr-15 14:31N 34°41' E 135°11'0 0.0
2018-Apr-15 14:00N 34°41' E 135°11'0 0.0
2018-Apr-15 13:30N 34°41' E 135°11'0 0.0
2018-Apr-15 13:00N 34°41' E 135°11'0 0.0
2018-Apr-15 12:31N 34°41' E 135°11'1 2.9
2018-Apr-15 12:00N 34°39' E 135°11'611.6
2018-Apr-15 11:30N 34°35' E 135°06'611.8
2018-Apr-15 11:00N 34°37' E 134°59'612.9
2018-Apr-15 10:30N 34°37' E 135°07'510.9
2018-Apr-15 10:00N 34°41' E 135°11'0 0.0
2018-Apr-15 09:30N 34°41' E 135°11'0 0.0
2018-Apr-15 09:00N 34°41' E 135°11'3 5.1
2018-Apr-15 08:30N 34°38' E 135°10'  

Dump ship's entire track history